松山國際航空站 - 塔臺

METAR RCSS 201900Z 10006KT 9999 FEW015 BKN025 BKN040 22/18 Q1014 NOSIG RMK A2996=

站台狀態:Online
最後更新:2019-10-21 03:00:02